sensor_id;sensor_type;location;lat;lon;timestamp;pressure;altitude;pressure_sealevel;temperature;humidity
25560;BME280;13450;49.374;8.584;2023-04-30T00:02:14;100879.78;;;11.86;100.00
25560;BME280;13450;49.374;8.584;2023-04-30T00:04:40;100879.78;;;11.86;100.00
25560;BME280;13450;49.374;8.584;2023-04-30T00:07:05;100883.31;;;11.87;100.00
25560;BME280;13450;49.374;8.584;2023-04-30T00:09:30;100886.34;;;11.84;100.00
25560;BME280;13450;49.374;8.584;2023-04-30T00:11:56;100885.53;;;11.83;100.00
25560;BME280;13450;49.374;8.584;2023-04-30T00:14:21;100889.22;;;11.82;100.00
25560;BME280;13450;49.374;8.584;2023-04-30T00:16:46;100899.09;;;11.82;100.00
25560;BME280;13450;49.374;8.584;2023-04-30T00:19:11;100894.59;;;11.82;100.00
25560;BME280;13450;49.374;8.584;2023-04-30T00:21:37;100892.91;;;11.81;100.00
25560;BME280;13450;49.374;8.584;2023-04-30T00:24:02;100895.97;;;11.78;100.00
25560;BME280;13450;49.374;8.584;2023-04-30T00:26:29;100901.13;;;11.80;100.00
25560;BME280;13450;49.374;8.584;2023-04-30T00:28:54;100909.38;;;11.78;100.00
25560;BME280;13450;49.374;8.584;2023-04-30T00:31:21;100909.06;;;11.73;100.00
25560;BME280;13450;49.374;8.584;2023-04-30T00:33:47;100902.69;;;11.74;100.00
25560;BME280;13450;49.374;8.584;2023-04-30T00:36:15;100905.38;;;11.74;100.00
25560;BME280;13450;49.374;8.584;2023-04-30T00:38:40;100907.41;;;11.72;100.00
25560;BME280;13450;49.374;8.584;2023-04-30T00:41:05;100913.59;;;11.72;100.00
25560;BME280;13450;49.374;8.584;2023-04-30T00:43:30;100908.78;;;11.68;100.00
25560;BME280;13450;49.374;8.584;2023-04-30T00:45:56;100903.59;;;11.66;100.00
25560;BME280;13450;49.374;8.584;2023-04-30T00:48:23;100902.94;;;11.64;100.00
25560;BME280;13450;49.374;8.584;2023-04-30T00:50:48;100903.78;;;11.64;100.00
25560;BME280;13450;49.374;8.584;2023-04-30T00:53:14;100900.09;;;11.66;100.00
25560;BME280;13450;49.374;8.584;2023-04-30T00:55:40;100898.44;;;11.64;100.00
25560;BME280;13450;49.374;8.584;2023-04-30T00:58:06;100900.28;;;11.64;100.00
25560;BME280;13450;49.374;8.584;2023-04-30T01:00:32;100899.25;;;11.65;100.00
25560;BME280;13450;49.374;8.584;2023-04-30T01:02:59;100898.13;;;11.59;100.00
25560;BME280;13450;49.374;8.584;2023-04-30T01:05:24;100898.50;;;11.56;100.00
25560;BME280;13450;49.374;8.584;2023-04-30T01:07:53;100900.22;;;11.49;100.00
25560;BME280;13450;49.374;8.584;2023-04-30T01:10:22;100903.25;;;11.46;100.00
25560;BME280;13450;49.374;8.584;2023-04-30T01:13:15;100898.91;;;11.45;100.00
25560;BME280;13450;49.374;8.584;2023-04-30T01:15:53;100900.94;;;11.43;100.00
25560;BME280;13450;49.374;8.584;2023-04-30T01:18:27;100900.94;;;11.43;100.00
25560;BME280;13450;49.374;8.584;2023-04-30T01:20:55;100892.63;;;11.37;100.00
25560;BME280;13450;49.374;8.584;2023-04-30T01:26:07;100894.16;;;11.32;100.00
25560;BME280;13450;49.374;8.584;2023-04-30T01:28:35;100893.69;;;11.28;100.00
25560;BME280;13450;49.374;8.584;2023-04-30T01:31:00;100890.00;;;11.29;100.00
25560;BME280;13450;49.374;8.584;2023-04-30T01:33:28;100890.34;;;11.26;100.00
25560;BME280;13450;49.374;8.584;2023-04-30T01:41:39;100890.53;;;11.24;100.00
25560;BME280;13450;49.374;8.584;2023-04-30T01:44:35;100880.81;;;11.23;100.00
25560;BME280;13450;49.374;8.584;2023-04-30T01:47:10;100883.31;;;11.25;100.00
25560;BME280;13450;49.374;8.584;2023-04-30T01:50:02;100885.00;;;11.26;100.00
25560;BME280;13450;49.374;8.584;2023-04-30T01:52:45;100885.00;;;11.26;100.00
25560;BME280;13450;49.374;8.584;2023-04-30T01:55:13;100882.31;;;11.26;100.00
25560;BME280;13450;49.374;8.584;2023-04-30T01:57:45;100886.66;;;11.27;100.00
25560;BME280;13450;49.374;8.584;2023-04-30T02:00:14;100884.47;;;11.31;100.00
25560;BME280;13450;49.374;8.584;2023-04-30T02:02:44;100891.66;;;11.30;100.00
25560;BME280;13450;49.374;8.584;2023-04-30T02:05:11;100884.63;;;11.29;100.00
25560;BME280;13450;49.374;8.584;2023-04-30T02:07:41;100895.34;;;11.29;100.00
25560;BME280;13450;49.374;8.584;2023-04-30T02:10:08;100890.00;;;11.29;100.00
25560;BME280;13450;49.374;8.584;2023-04-30T02:12:37;100887.31;;;11.29;100.00
25560;BME280;13450;49.374;8.584;2023-04-30T02:15:03;100890.00;;;11.29;100.00
25560;BME280;13450;49.374;8.584;2023-04-30T02:17:29;100884.16;;;11.25;100.00
25560;BME280;13450;49.374;8.584;2023-04-30T02:19:56;100891.53;;;11.23;100.00
25560;BME280;13450;49.374;8.584;2023-04-30T02:22:21;100885.34;;;11.23;100.00
25560;BME280;13450;49.374;8.584;2023-04-30T02:24:46;100888.41;;;11.20;100.00
25560;BME280;13450;49.374;8.584;2023-04-30T02:27:12;100892.72;;;11.21;100.00
25560;BME280;13450;49.374;8.584;2023-04-30T02:29:39;100886.91;;;11.17;100.00
25560;BME280;13450;49.374;8.584;2023-04-30T02:32:04;100889.38;;;11.19;100.00
25560;BME280;13450;49.374;8.584;2023-04-30T02:34:33;100887.38;;;11.21;100.00
25560;BME280;13450;49.374;8.584;2023-04-30T02:37:19;100883.84;;;11.20;100.00
25560;BME280;13450;49.374;8.584;2023-04-30T02:39:45;100892.72;;;11.21;100.00
25560;BME280;13450;49.374;8.584;2023-04-30T02:42:10;100889.03;;;11.22;100.00
25560;BME280;13450;49.374;8.584;2023-04-30T02:44:36;100889.03;;;11.22;100.00
25560;BME280;13450;49.374;8.584;2023-04-30T02:47:01;100883.69;;;11.22;100.00
25560;BME280;13450;49.374;8.584;2023-04-30T02:49:27;100883.69;;;11.22;100.00
25560;BME280;13450;49.374;8.584;2023-04-30T02:51:53;100881.66;;;11.24;100.00
25560;BME280;13450;49.374;8.584;2023-04-30T02:54:19;100884.88;;;11.19;100.00
25560;BME280;13450;49.374;8.584;2023-04-30T02:56:45;100875.81;;;11.20;100.00
25560;BME280;13450;49.374;8.584;2023-04-30T02:59:10;100881.16;;;11.20;100.00
25560;BME280;13450;49.374;8.584;2023-04-30T03:01:36;100877.00;;;11.18;100.00
25560;BME280;13450;49.374;8.584;2023-04-30T03:04:01;100872.97;;;11.22;100.00
25560;BME280;13450;49.374;8.584;2023-04-30T03:06:29;100877.13;;;11.24;100.00
25560;BME280;13450;49.374;8.584;2023-04-30T03:08:55;100871.06;;;11.31;100.00
25560;BME280;13450;49.374;8.584;2023-04-30T03:11:21;100879.91;;;11.31;100.00
25560;BME280;13450;49.374;8.584;2023-04-30T03:13:46;100886.94;;;11.32;100.00
25560;BME280;13450;49.374;8.584;2023-04-30T03:16:16;100887.59;;;11.34;100.00
25560;BME280;13450;49.374;8.584;2023-04-30T03:18:41;100882.25;;;11.34;100.00
25560;BME280;13450;49.374;8.584;2023-04-30T03:21:06;100885.78;;;11.35;100.00
25560;BME280;13450;49.374;8.584;2023-04-30T03:23:32;100886.75;;;11.34;100.00
25560;BME280;13450;49.374;8.584;2023-04-30T03:25:57;100881.06;;;11.37;100.00
25560;BME280;13450;49.374;8.584;2023-04-30T03:28:22;100883.09;;;11.35;100.00
25560;BME280;13450;49.374;8.584;2023-04-30T03:30:50;100880.94;;;11.30;100.00
25560;BME280;13450;49.374;8.584;2023-04-30T03:33:15;100886.66;;;11.27;100.00
25560;BME280;13450;49.374;8.584;2023-04-30T03:35:41;100887.03;;;11.24;100.00
25560;BME280;13450;49.374;8.584;2023-04-30T03:38:06;100887.72;;;11.18;100.00
25560;BME280;13450;49.374;8.584;2023-04-30T03:40:31;100883.72;;;11.14;100.00
25560;BME280;13450;49.374;8.584;2023-04-30T03:42:56;100884.75;;;11.12;100.00
25560;BME280;13450;49.374;8.584;2023-04-30T03:45:22;100879.75;;;11.09;100.00
25560;BME280;13450;49.374;8.584;2023-04-30T03:47:47;100876.41;;;11.07;100.00
25560;BME280;13450;49.374;8.584;2023-04-30T03:50:13;100885.47;;;11.06;100.00
25560;BME280;13450;49.374;8.584;2023-04-30T03:52:40;100885.47;;;11.06;100.00
25560;BME280;13450;49.374;8.584;2023-04-30T03:55:11;100880.13;;;11.06;100.00
25560;BME280;13450;49.374;8.584;2023-04-30T03:57:38;100883.59;;;11.07;100.00
25560;BME280;13450;49.374;8.584;2023-04-30T04:00:05;100881.59;;;11.09;100.00
25560;BME280;13450;49.374;8.584;2023-04-30T04:02:34;100872.06;;;11.06;100.00
25560;BME280;13450;49.374;8.584;2023-04-30T04:05:00;100876.75;;;11.04;100.00
25560;BME280;13450;49.374;8.584;2023-04-30T04:07:25;100877.44;;;11.06;100.00
25560;BME280;13450;49.374;8.584;2023-04-30T04:09:51;100878.41;;;11.05;100.00
25560;BME280;13450;49.374;8.584;2023-04-30T04:12:19;100877.59;;;11.05;100.00
25560;BME280;13450;49.374;8.584;2023-04-30T04:14:44;100874.25;;;11.03;100.00
25560;BME280;13450;49.374;8.584;2023-04-30T04:17:09;100879.81;;;11.01;100.00
25560;BME280;13450;49.374;8.584;2023-04-30T04:19:35;100880.63;;;11.02;100.00
25560;BME280;13450;49.374;8.584;2023-04-30T04:22:02;100888.50;;;11.03;100.00
25560;BME280;13450;49.374;8.584;2023-04-30T04:24:30;100892.84;;;11.04;100.00
25560;BME280;13450;49.374;8.584;2023-04-30T04:26:55;100893.34;;;11.08;100.00
25560;BME280;13450;49.374;8.584;2023-04-30T04:29:22;100901.53;;;11.06;100.00
25560;BME280;13450;49.374;8.584;2023-04-30T04:31:47;100898.31;;;11.11;100.00
25560;BME280;13450;49.374;8.584;2023-04-30T04:34:15;100893.81;;;11.11;100.00
25560;BME280;13450;49.374;8.584;2023-04-30T04:36:40;100903.31;;;11.14;100.00
25560;BME280;13450;49.374;8.584;2023-04-30T04:39:06;100907.84;;;11.14;100.00
25560;BME280;13450;49.374;8.584;2023-04-30T04:41:34;100902.47;;;11.14;100.00
25560;BME280;13450;49.374;8.584;2023-04-30T04:44:00;100905.81;;;11.16;100.00
25560;BME280;13450;49.374;8.584;2023-04-30T04:46:27;100904.81;;;11.17;100.00
25560;BME280;13450;49.374;8.584;2023-04-30T04:48:53;100900.47;;;11.16;100.00
25560;BME280;13450;49.374;8.584;2023-04-30T04:51:19;100898.44;;;11.18;100.00
25560;BME280;13450;49.374;8.584;2023-04-30T04:53:47;100903.44;;;11.21;100.00
25560;BME280;13450;49.374;8.584;2023-04-30T04:56:15;100897.75;;;11.24;100.00
25560;BME280;13450;49.374;8.584;2023-04-30T04:58:41;100902.91;;;11.25;100.00
25560;BME280;13450;49.374;8.584;2023-04-30T05:01:06;100908.75;;;11.29;100.00
25560;BME280;13450;49.374;8.584;2023-04-30T05:03:32;100904.03;;;11.31;100.00
25560;BME280;13450;49.374;8.584;2023-04-30T05:05:59;100901.66;;;11.36;100.00
25560;BME280;13450;49.374;8.584;2023-04-30T05:08:25;100900.28;;;11.41;100.00
25560;BME280;13450;49.374;8.584;2023-04-30T05:10:51;100906.94;;;11.45;100.00
25560;BME280;13450;49.374;8.584;2023-04-30T05:13:17;100906.03;;;11.52;100.00
25560;BME280;13450;49.374;8.584;2023-04-30T05:15:42;100900.78;;;11.59;100.00
25560;BME280;13450;49.374;8.584;2023-04-30T05:18:08;100902.88;;;11.72;100.00
25560;BME280;13450;49.374;8.584;2023-04-30T05:20:33;100906.31;;;11.81;100.00
25560;BME280;13450;49.374;8.584;2023-04-30T05:22:58;100900.88;;;11.89;100.00
25560;BME280;13450;49.374;8.584;2023-04-30T05:25:23;100901.44;;;12.00;100.00
25560;BME280;13450;49.374;8.584;2023-04-30T05:27:49;100901.06;;;12.03;100.00
25560;BME280;13450;49.374;8.584;2023-04-30T05:30:14;100904.06;;;12.08;100.00
25560;BME280;13450;49.374;8.584;2023-04-30T05:32:40;100907.41;;;12.10;100.00
25560;BME280;13450;49.374;8.584;2023-04-30T05:35:06;100908.53;;;12.16;100.00
25560;BME280;13450;49.374;8.584;2023-04-30T05:37:31;100905.94;;;12.23;100.00
25560;BME280;13450;49.374;8.584;2023-04-30T05:39:57;100914.63;;;12.25;100.00
25560;BME280;13450;49.374;8.584;2023-04-30T05:42:22;100910.19;;;12.32;100.00
25560;BME280;13450;49.374;8.584;2023-04-30T05:44:51;100912.69;;;12.34;100.00
25560;BME280;13450;49.374;8.584;2023-04-30T05:47:16;100911.50;;;12.36;100.00
25560;BME280;13450;49.374;8.584;2023-04-30T05:49:41;100914.19;;;12.36;100.00
25560;BME280;13450;49.374;8.584;2023-04-30T05:52:09;100916.88;;;12.36;100.00
25560;BME280;13450;49.374;8.584;2023-04-30T05:54:35;100907.31;;;12.34;100.00
25560;BME280;13450;49.374;8.584;2023-04-30T05:57:00;100912.31;;;12.37;100.00
25560;BME280;13450;49.374;8.584;2023-04-30T05:59:26;100912.75;;;12.40;100.00
25560;BME280;13450;49.374;8.584;2023-04-30T06:01:52;100908.31;;;12.48;100.00
25560;BME280;13450;49.374;8.584;2023-04-30T06:04:17;100915.91;;;12.59;100.00
25560;BME280;13450;49.374;8.584;2023-04-30T06:06:47;100912.94;;;12.69;100.00
25560;BME280;13450;49.374;8.584;2023-04-30T06:09:12;100922.00;;;12.83;100.00
25560;BME280;13450;49.374;8.584;2023-04-30T06:11:37;100914.47;;;12.93;100.00
25560;BME280;13450;49.374;8.584;2023-04-30T06:14:03;100918.63;;;12.96;100.00
25560;BME280;13450;49.374;8.584;2023-04-30T06:16:29;100918.50;;;13.04;100.00
25560;BME280;13450;49.374;8.584;2023-04-30T06:18:54;100929.69;;;13.08;100.00
25560;BME280;13450;49.374;8.584;2023-04-30T06:21:19;100926.06;;;13.16;100.00
25560;BME280;13450;49.374;8.584;2023-04-30T06:23:45;100922.25;;;13.25;100.00
25560;BME280;13450;49.374;8.584;2023-04-30T06:26:10;100923.06;;;13.26;100.00
25560;BME280;13450;49.374;8.584;2023-04-30T06:28:39;100921.03;;;13.28;100.00
25560;BME280;13450;49.374;8.584;2023-04-30T06:31:04;100905.03;;;13.19;100.00
25560;BME280;13450;49.374;8.584;2023-04-30T06:33:30;100915.41;;;13.23;100.00
25560;BME280;13450;49.374;8.584;2023-04-30T06:35:55;100922.06;;;13.27;100.00
25560;BME280;13450;49.374;8.584;2023-04-30T06:38:20;100923.34;;;13.31;100.00
25560;BME280;13450;49.374;8.584;2023-04-30T06:40:46;100918.00;;;13.38;100.00
25560;BME280;13450;49.374;8.584;2023-04-30T06:43:13;100921.34;;;13.40;100.00
25560;BME280;13450;49.374;8.584;2023-04-30T06:45:38;100914.84;;;13.49;100.00
25560;BME280;13450;49.374;8.584;2023-04-30T06:48:04;100921.31;;;13.55;100.00
25560;BME280;13450;49.374;8.584;2023-04-30T06:50:30;100922.84;;;13.64;100.00
25560;BME280;13450;49.374;8.584;2023-04-30T06:52:57;100923.31;;;13.75;100.00
25560;BME280;13450;49.374;8.584;2023-04-30T06:55:23;100921.28;;;13.77;100.00
25560;BME280;13450;49.374;8.584;2023-04-30T06:57:52;100932.09;;;13.83;100.00
25560;BME280;13450;49.374;8.584;2023-04-30T07:00:18;100926.31;;;13.86;100.00
25560;BME280;13450;49.374;8.584;2023-04-30T07:02:44;100918.47;;;13.92;100.00
25560;BME280;13450;49.374;8.584;2023-04-30T07:05:11;100925.09;;;13.89;100.00
25560;BME280;13450;49.374;8.584;2023-04-30T07:07:37;100918.47;;;13.92;100.00
25560;BME280;13450;49.374;8.584;2023-04-30T07:10:05;100923.44;;;13.88;100.00
25560;BME280;13450;49.374;8.584;2023-04-30T07:12:30;100923.66;;;13.93;100.00
25560;BME280;13450;49.374;8.584;2023-04-30T07:14:56;100926.59;;;13.98;100.00
25560;BME280;13450;49.374;8.584;2023-04-30T07:17:24;100928.53;;;14.05;100.00
25560;BME280;13450;49.374;8.584;2023-04-30T07:19:52;100934.16;;;14.10;100.00
25560;BME280;13450;49.374;8.584;2023-04-30T07:22:17;100933.34;;;14.16;100.00
25560;BME280;13450;49.374;8.584;2023-04-30T07:24:42;100932.16;;;14.25;100.00
25560;BME280;13450;49.374;8.584;2023-04-30T07:27:08;100931.16;;;14.27;100.00
25560;BME280;13450;49.374;8.584;2023-04-30T07:29:34;100929.31;;;14.34;100.00
25560;BME280;13450;49.374;8.584;2023-04-30T07:31:59;100927.50;;;14.41;100.00
25560;BME280;13450;49.374;8.584;2023-04-30T07:34:24;100921.72;;;14.44;100.00
25560;BME280;13450;49.374;8.584;2023-04-30T07:36:50;100930.66;;;14.51;100.00
25560;BME280;13450;49.374;8.584;2023-04-30T07:39:15;100927.41;;;14.63;100.00
25560;BME280;13450;49.374;8.584;2023-04-30T07:41:44;100932.16;;;14.61;100.00
25560;BME280;13450;49.374;8.584;2023-04-30T07:44:09;100931.34;;;14.60;100.00
25560;BME280;13450;49.374;8.584;2023-04-30T07:46:36;100924.72;;;14.63;100.00
25560;BME280;13450;49.374;8.584;2023-04-30T07:49:01;100923.91;;;14.69;100.00
25560;BME280;13450;49.374;8.584;2023-04-30T07:51:28;100916.66;;;14.70;100.00
25560;BME280;13450;49.374;8.584;2023-04-30T07:53:54;100925.41;;;14.78;100.00
25560;BME280;13450;49.374;8.584;2023-04-30T07:56:19;100924.44;;;14.93;100.00
25560;BME280;13450;49.374;8.584;2023-04-30T07:58:47;100926.75;;;15.03;100.00
25560;BME280;13450;49.374;8.584;2023-04-30T08:01:15;100919.91;;;15.07;100.00
25560;BME280;13450;49.374;8.584;2023-04-30T08:03:40;100929.47;;;15.10;100.00
25560;BME280;13450;49.374;8.584;2023-04-30T08:06:06;100927.03;;;15.35;100.00
25560;BME280;13450;49.374;8.584;2023-04-30T08:08:32;100927.69;;;15.64;100.00
25560;BME280;13450;49.374;8.584;2023-04-30T08:10:57;100930.19;;;15.79;100.00
25560;BME280;13450;49.374;8.584;2023-04-30T08:13:22;100921.84;;;15.74;100.00
25560;BME280;13450;49.374;8.584;2023-04-30T08:15:47;100922.91;;;15.73;100.00
25560;BME280;13450;49.374;8.584;2023-04-30T08:18:13;100919.16;;;15.67;100.00
25560;BME280;13450;49.374;8.584;2023-04-30T08:20:38;100922.09;;;15.66;100.00
25560;BME280;13450;49.374;8.584;2023-04-30T08:23:03;100923.94;;;15.59;100.00
25560;BME280;13450;49.374;8.584;2023-04-30T08:25:31;100922.50;;;15.63;100.00
25560;BME280;13450;49.374;8.584;2023-04-30T08:27:58;100929.13;;;15.67;100.00
25560;BME280;13450;49.374;8.584;2023-04-30T08:30:24;100923.34;;;15.70;100.00
25560;BME280;13450;49.374;8.584;2023-04-30T08:32:49;100926.63;;;15.79;100.00
25560;BME280;13450;49.374;8.584;2023-04-30T08:35:15;100924.53;;;15.88;100.00
25560;BME280;13450;49.374;8.584;2023-04-30T08:37:43;100927.06;;;15.96;100.00
25560;BME280;13450;49.374;8.584;2023-04-30T08:40:09;100921.88;;;16.01;100.00
25560;BME280;13450;49.374;8.584;2023-04-30T08:42:36;100927.03;;;16.10;100.00
25560;BME280;13450;49.374;8.584;2023-04-30T08:45:03;100922.25;;;16.25;100.00
25560;BME280;13450;49.374;8.584;2023-04-30T08:47:29;100923.25;;;16.31;100.00
25560;BME280;13450;49.374;8.584;2023-04-30T08:49:57;100920.34;;;16.39;100.00
25560;BME280;13450;49.374;8.584;2023-04-30T08:52:23;100928.66;;;16.38;100.00
25560;BME280;13450;49.374;8.584;2023-04-30T08:54:49;100924.44;;;16.48;98.58
25560;BME280;13450;49.374;8.584;2023-04-30T08:57:17;100927.09;;;16.69;98.46
25560;BME280;13450;49.374;8.584;2023-04-30T08:59:45;100924.66;;;16.54;92.82
25560;BME280;13450;49.374;8.584;2023-04-30T09:02:11;100918.66;;;16.91;92.58
25560;BME280;13450;49.374;8.584;2023-04-30T09:04:39;100921.53;;;17.03;89.71
25560;BME280;13450;49.374;8.584;2023-04-30T09:07:04;100918.81;;;17.09;93.02
25560;BME280;13450;49.374;8.584;2023-04-30T09:09:37;100921.72;;;17.15;96.35
25560;BME280;13450;49.374;8.584;2023-04-30T09:12:12;100924.63;;;17.13;89.23
25560;BME280;13450;49.374;8.584;2023-04-30T09:14:40;100921.63;;;17.28;88.03
25560;BME280;13450;49.374;8.584;2023-04-30T09:17:21;100918.00;;;17.67;84.28
25560;BME280;13450;49.374;8.584;2023-04-30T09:19:47;100909.75;;;17.80;86.36
25560;BME280;13450;49.374;8.584;2023-04-30T09:22:20;100918.66;;;17.87;82.26
25560;BME280;13450;49.374;8.584;2023-04-30T09:24:47;100909.34;;;18.02;82.17
25560;BME280;13450;49.374;8.584;2023-04-30T09:27:21;100911.75;;;18.17;86.22
25560;BME280;13450;49.374;8.584;2023-04-30T09:29:46;100919.09;;;18.28;79.07
25560;BME280;13450;49.374;8.584;2023-04-30T09:32:13;100917.75;;;18.38;78.76
25560;BME280;13450;49.374;8.584;2023-04-30T09:34:39;100913.59;;;18.54;80.13
25560;BME280;13450;49.374;8.584;2023-04-30T09:37:05;100921.44;;;18.62;78.33
25560;BME280;13450;49.374;8.584;2023-04-30T09:39:31;100907.03;;;18.80;73.35
25560;BME280;13450;49.374;8.584;2023-04-30T09:42:07;100920.81;;;18.79;75.91
25560;BME280;13450;49.374;8.584;2023-04-30T09:44:38;100916.63;;;18.64;78.15
25560;BME280;13450;49.374;8.584;2023-04-30T09:47:12;100918.34;;;18.59;77.43
25560;BME280;13450;49.374;8.584;2023-04-30T09:49:40;100911.53;;;18.87;79.37
25560;BME280;13450;49.374;8.584;2023-04-30T09:52:07;100913.88;;;18.83;74.98
25560;BME280;13450;49.374;8.584;2023-04-30T09:54:33;100914.78;;;18.77;70.81
25560;BME280;13450;49.374;8.584;2023-04-30T09:57:00;100919.44;;;18.88;64.20
25560;BME280;13450;49.374;8.584;2023-04-30T09:59:33;100912.13;;;18.89;71.02
25560;BME280;13450;49.374;8.584;2023-04-30T10:02:04;100912.69;;;18.79;71.40
25560;BME280;13450;49.374;8.584;2023-04-30T10:04:33;100915.63;;;18.77;73.45
25560;BME280;13450;49.374;8.584;2023-04-30T10:07:03;100914.50;;;18.66;75.41
25560;BME280;13450;49.374;8.584;2023-04-30T10:09:38;100909.72;;;18.50;73.19
25560;BME280;13450;49.374;8.584;2023-04-30T10:12:07;100907.81;;;18.32;69.79
25560;BME280;13450;49.374;8.584;2023-04-30T10:14:37;100915.44;;;18.23;72.13
25560;BME280;13450;49.374;8.584;2023-04-30T10:17:08;100911.19;;;18.27;76.05
25560;BME280;13450;49.374;8.584;2023-04-30T10:19:38;100902.63;;;18.11;77.00
25560;BME280;13450;49.374;8.584;2023-04-30T10:22:06;100897.91;;;18.25;75.99
25560;BME280;13450;49.374;8.584;2023-04-30T10:24:32;100901.56;;;18.31;76.01
25560;BME280;13450;49.374;8.584;2023-04-30T10:26:57;100910.47;;;18.38;76.16
25560;BME280;13450;49.374;8.584;2023-04-30T10:29:23;100901.13;;;18.34;69.61
25560;BME280;13450;49.374;8.584;2023-04-30T10:31:53;100897.00;;;18.32;76.20
25560;BME280;13450;49.374;8.584;2023-04-30T10:39:53;100886.38;;;18.30;74.96
25560;BME280;13450;49.374;8.584;2023-04-30T10:42:19;100883.09;;;18.28;71.48
25560;BME280;13450;49.374;8.584;2023-04-30T10:44:45;100890.44;;;18.39;70.83
25560;BME280;13450;49.374;8.584;2023-04-30T10:47:10;100889.84;;;18.37;72.05
25560;BME280;13450;49.374;8.584;2023-04-30T10:49:38;100888.94;;;18.43;75.91
25560;BME280;13450;49.374;8.584;2023-04-30T10:52:11;100884.19;;;18.58;69.10
25560;BME280;13450;49.374;8.584;2023-04-30T10:54:37;100881.34;;;18.52;72.93
25560;BME280;13450;49.374;8.584;2023-04-30T10:57:16;100881.78;;;18.49;71.81
25560;BME280;13450;49.374;8.584;2023-04-30T11:00:16;100876.44;;;18.42;72.24
25560;BME280;13450;49.374;8.584;2023-04-30T11:02:39;100887.28;;;18.42;72.31
25560;BME280;13450;49.374;8.584;2023-04-30T11:07:34;100870.81;;;18.25;72.67
25560;BME280;13450;49.374;8.584;2023-04-30T11:10:00;100871.84;;;18.24;74.11
25560;BME280;13450;49.374;8.584;2023-04-30T11:12:27;100871.63;;;18.26;75.87
25560;BME280;13450;49.374;8.584;2023-04-30T11:14:59;100865.31;;;18.32;74.13
25560;BME280;13450;49.374;8.584;2023-04-30T11:17:26;100862.84;;;18.30;73.53
25560;BME280;13450;49.374;8.584;2023-04-30T11:19:52;100867.56;;;18.16;74.33
25560;BME280;13450;49.374;8.584;2023-04-30T11:22:21;100868.69;;;18.27;73.79
25560;BME280;13450;49.374;8.584;2023-04-30T11:25:01;100864.84;;;18.35;71.69
25560;BME280;13450;49.374;8.584;2023-04-30T11:27:29;100874.16;;;18.58;68.58
25560;BME280;13450;49.374;8.584;2023-04-30T11:29:56;100862.25;;;18.78;66.81
25560;BME280;13450;49.374;8.584;2023-04-30T11:32:25;100860.66;;;19.01;71.46
25560;BME280;13450;49.374;8.584;2023-04-30T11:34:51;100860.00;;;18.87;65.35
25560;BME280;13450;49.374;8.584;2023-04-30T11:37:37;100867.81;;;18.95;66.89
25560;BME280;13450;49.374;8.584;2023-04-30T11:40:04;100866.31;;;18.99;64.84
25560;BME280;13450;49.374;8.584;2023-04-30T11:42:32;100856.72;;;19.15;67.21
25560;BME280;13450;49.374;8.584;2023-04-30T11:45:05;100854.88;;;19.40;63.95
25560;BME280;13450;49.374;8.584;2023-04-30T11:50:11;100853.81;;;19.65;66.74
25560;BME280;13450;49.374;8.584;2023-04-30T11:52:37;100855.72;;;19.52;69.66
25560;BME280;13450;49.374;8.584;2023-04-30T11:55:14;100853.81;;;19.53;64.96
25560;BME280;13450;49.374;8.584;2023-04-30T11:57:47;100844.25;;;19.38;65.13
25560;BME280;13450;49.374;8.584;2023-04-30T12:00:21;100843.66;;;19.48;62.59
25560;BME280;13450;49.374;8.584;2023-04-30T12:02:48;100842.25;;;19.69;68.63
25560;BME280;13450;49.374;8.584;2023-04-30T12:05:21;100846.97;;;19.62;63.93
25560;BME280;13450;49.374;8.584;2023-04-30T12:10:18;100838.00;;;19.73;63.82
25560;BME280;13450;49.374;8.584;2023-04-30T12:12:44;100837.66;;;19.82;62.72
25560;BME280;13450;49.374;8.584;2023-04-30T12:15:17;100836.47;;;20.02;65.32
25560;BME280;13450;49.374;8.584;2023-04-30T12:17:44;100826.91;;;20.40;63.69
25560;BME280;13450;49.374;8.584;2023-04-30T12:20:14;100831.88;;;21.19;62.33
25560;BME280;13450;49.374;8.584;2023-04-30T12:22:43;100829.34;;;22.80;56.99
25560;BME280;13450;49.374;8.584;2023-04-30T12:25:14;100821.13;;;23.08;48.95
25560;BME280;13450;49.374;8.584;2023-04-30T12:28:00;100812.06;;;22.69;51.42
25560;BME280;13450;49.374;8.584;2023-04-30T12:30:25;100825.91;;;22.18;50.59
25560;BME280;13450;49.374;8.584;2023-04-30T12:32:52;100827.19;;;21.71;53.56
25560;BME280;13450;49.374;8.584;2023-04-30T12:35:21;100817.31;;;21.47;53.21
25560;BME280;13450;49.374;8.584;2023-04-30T12:37:52;100816.09;;;21.72;55.00
25560;BME280;13450;49.374;8.584;2023-04-30T12:40:25;100821.44;;;23.98;53.13
25560;BME280;13450;49.374;8.584;2023-04-30T12:42:59;100822.66;;;25.89;46.43
25560;BME280;13450;49.374;8.584;2023-04-30T12:45:52;100816.78;;;27.37;41.06
25560;BME280;13450;49.374;8.584;2023-04-30T12:48:24;100813.53;;;26.15;42.79
25560;BME280;13450;49.374;8.584;2023-04-30T12:51:00;100820.59;;;25.29;42.31
25560;BME280;13450;49.374;8.584;2023-04-30T12:53:28;100810.50;;;23.98;43.08
25560;BME280;13450;49.374;8.584;2023-04-30T12:56:16;100811.56;;;22.50;47.48
25560;BME280;13450;49.374;8.584;2023-04-30T12:58:43;100808.16;;;22.38;50.45
25560;BME280;13450;49.374;8.584;2023-04-30T13:01:19;100794.25;;;23.32;48.78
25560;BME280;13450;49.374;8.584;2023-04-30T13:03:45;100807.16;;;25.32;40.02
25560;BME280;13450;49.374;8.584;2023-04-30T13:06:13;100789.78;;;25.89;37.34
25560;BME280;13450;49.374;8.584;2023-04-30T13:08:39;100799.25;;;25.26;38.00